Time;durP1;ratioP1;P1;durP2;ratioP2;P2;SDS_P1;SDS_P2;PMS_P1;PMS_P2;Temp;Humidity;BMP_temperature;BMP_pressure;BME280_temperature;BME280_humidity;BME280_pressure;Samples;Min_cycle;Max_cycle;Signal;HPM_P1;HPM_P2
2023/03/11 06:39:04;;;;;;;2.40;2.20;;;0.00;99.90;;;;;;5122280;27;20588;-81
2023/03/11 06:44:03;;;;;;;8.40;3.13;;;0.10;99.90;;;;;;5101595;28;20581;-82
2023/03/11 06:48:25;;;;;;;3.33;2.13;;;;;;;;;;5141559;27;20287;-82
2023/03/11 06:53:28;;;;;;;3.50;2.37;;;0.50;99.90;;;;;;5142653;27;20271;-80
2023/03/11 06:57:50;;;;;;;2.37;1.60;;;0.30;99.90;;;;;;5140506;27;20283;-81
2023/03/11 07:01:52;;;;;;;2.47;1.60;;;0.30;99.90;;;;;;5137851;27;20664;-81
2023/03/11 07:05:45;;;;;;;2.17;1.77;;;0.30;99.90;;;;;;5141212;27;20282;-81
2023/03/11 07:09:43;;;;;;;2.37;1.80;;;0.50;99.90;;;;;;5138830;27;20798;-81
2023/03/11 07:13:43;;;;;;;2.10;1.87;;;0.50;99.90;;;;;;5138513;27;20608;-81
2023/03/11 07:16:14;;;;;;;2.47;1.90;;;0.50;99.90;;;;;;5136872;28;20483;-82
2023/03/11 07:18:41;;;;;;;1.87;1.70;;;0.50;99.90;;;;;;5122091;28;20680;-82
2023/03/11 07:21:08;;;;;;;2.57;1.77;;;0.60;99.90;;;;;;5135938;28;21004;-81
2023/03/11 07:23:34;;;;;;;3.73;2.20;;;0.60;99.90;;;;;;5136531;28;20832;-81
2023/03/11 07:26:00;;;;;;;2.37;2.17;;;0.80;99.90;;;;;;5134318;28;20473;-81
2023/03/11 07:28:27;;;;;;;2.63;2.20;;;0.90;99.90;;;;;;5134148;28;20441;-82
2023/03/11 07:30:53;;;;;;;2.77;2.30;;;1.00;99.90;;;;;;5136088;27;20468;-81
2023/03/11 07:33:21;;;;;;;3.47;2.93;;;1.10;99.90;;;;;;5133188;28;20452;-81
2023/03/11 07:35:48;;;;;;;2.23;2.03;;;1.10;99.90;;;;;;5133997;28;20408;-81
2023/03/11 07:38:15;;;;;;;3.33;2.00;;;1.00;99.90;;;;;;5135927;27;20427;-81
2023/03/11 07:40:41;;;;;;;2.27;1.93;;;1.20;99.90;;;;;;5133875;28;20446;-81
2023/03/11 07:43:07;;;;;;;3.37;2.13;;;1.60;99.90;;;;;;5135318;27;20409;-82
2023/03/11 07:45:32;;;;;;;2.90;2.10;;;2.10;99.90;;;;;;5135854;27;20192;-82
2023/03/11 07:47:58;;;;;;;2.87;2.17;;;2.30;99.90;;;;;;5134209;28;20175;-82
2023/03/11 07:50:24;;;;;;;2.87;2.00;;;2.30;99.90;;;;;;5134560;28;20179;-82
2023/03/11 07:52:49;;;;;;;2.40;1.90;;;2.20;99.90;;;;;;5134010;28;20211;-82
2023/03/11 07:55:15;;;;;;;2.27;1.93;;;1.90;99.90;;;;;;5138178;27;20217;-81
2023/03/11 07:57:41;;;;;;;2.53;2.20;;;1.60;99.90;;;;;;5140960;27;20178;-82
2023/03/11 08:00:08;;;;;;;5.90;2.27;;;1.50;99.90;;;;;;5138963;27;20198;-81
2023/03/11 08:02:34;;;;;;;7.97;4.80;;;1.20;99.90;;;;;;5132779;28;20210;-82
2023/03/11 08:05:00;;;;;;;4.00;2.97;;;1.30;99.90;;;;;;5133148;28;20404;-82
2023/03/11 08:07:25;;;;;;;3.20;1.80;;;1.50;99.90;;;;;;5133013;28;20175;-81
2023/03/11 08:09:51;;;;;;;3.03;1.90;;;1.50;99.90;;;;;;5134059;27;20194;-81
2023/03/11 08:12:17;;;;;;;4.03;2.20;;;1.50;99.90;;;;;;5132289;28;20211;-82
2023/03/11 08:14:42;;;;;;;3.57;2.53;;;1.60;99.90;;;;;;5133309;28;20637;-82
2023/03/11 08:17:09;;;;;;;2.83;1.77;;;1.80;99.90;;;;;;5116344;28;20179;-82
2023/03/11 08:19:35;;;;;;;3.13;2.37;;;1.90;99.90;;;;;;5134092;27;20191;-82
2023/03/11 08:22:04;;;;;;;2.93;2.10;;;1.80;99.90;;;;;;5132839;28;20182;-82
2023/03/11 08:24:29;;;;;;;2.30;1.50;;;1.80;99.90;;;;;;5122943;28;20263;-81
2023/03/11 08:26:55;;;;;;;2.77;1.93;;;1.80;99.90;;;;;;5120120;28;20444;-82
2023/03/11 08:29:22;;;;;;;6.80;3.93;;;2.10;99.90;;;;;;5121362;28;20269;-82
2023/03/11 08:31:48;;;;;;;3.23;2.90;;;2.70;99.90;;;;;;5120117;28;20211;-82
2023/03/11 08:34:14;;;;;;;2.00;1.70;;;2.60;99.90;;;;;;5119956;28;21051;-82
2023/03/11 08:36:40;;;;;;;2.77;2.30;;;2.50;99.90;;;;;;5121417;28;20180;-82
2023/03/11 08:39:06;;;;;;;1.57;1.47;;;2.50;99.90;;;;;;5120955;28;20187;-81
2023/03/11 08:41:32;;;;;;;2.03;1.50;;;3.10;99.90;;;;;;5121866;28;20207;-81
2023/03/11 08:43:58;;;;;;;3.30;1.80;;;3.40;99.90;;;;;;5122134;27;20172;-82
2023/03/11 08:46:30;;;;;;;2.10;1.70;;;3.70;99.90;;;;;;5120895;28;20175;-82
2023/03/11 08:48:57;;;;;;;2.07;1.33;;;4.00;99.90;;;;;;5120852;28;20199;-82
2023/03/11 08:51:24;;;;;;;3.10;1.70;;;4.40;99.90;;;;;;5119727;28;20202;-82
2023/03/11 08:53:50;;;;;;;3.17;1.80;;;5.00;99.90;;;;;;5119684;28;20206;-81
2023/03/11 08:56:16;;;;;;;3.67;2.20;;;5.70;99.90;;;;;;5120923;28;20691;-82
2023/03/11 08:58:42;;;;;;;2.03;1.50;;;6.30;99.90;;;;;;5119496;28;20196;-83
2023/03/11 09:01:10;;;;;;;2.30;1.53;;;6.60;99.90;;;;;;5119619;28;20174;-83
2023/03/11 09:03:36;;;;;;;2.53;1.70;;;6.50;99.90;;;;;;5119185;28;20180;-83
2023/03/11 09:06:05;;;;;;;2.50;1.27;;;7.00;99.90;;;;;;5119498;28;20178;-83
2023/03/11 09:08:31;;;;;;;2.07;1.37;;;6.50;98.70;;;;;;5119224;28;20631;-83
2023/03/11 09:10:57;;;;;;;2.37;1.10;;;6.30;99.90;;;;;;5120207;28;20629;-83
2023/03/11 09:13:23;;;;;;;1.30;1.20;;;5.80;99.90;;;;;;5118531;28;20227;-83
2023/03/11 09:15:50;;;;;;;2.30;1.60;;;6.00;99.90;;;;;;5119275;28;20579;-83
2023/03/11 09:18:16;;;;;;;2.93;1.63;;;6.50;99.90;;;;;;5118894;28;20175;-83
2023/03/11 09:20:42;;;;;;;2.97;1.20;;;6.70;99.90;;;;;;5121447;28;20172;-83
2023/03/11 09:23:10;;;;;;;2.50;1.57;;;6.50;99.80;;;;;;5119988;28;20232;-83
2023/03/11 09:25:35;;;;;;;2.53;1.00;;;6.40;98.50;;;;;;5120423;28;20183;-83
2023/03/11 09:28:01;;;;;;;4.97;2.30;;;6.50;98.50;;;;;;5120377;28;20218;-83
2023/03/11 09:30:27;;;;;;;3.67;1.37;;;7.00;99.60;;;;;;5120003;28;20222;-83
2023/03/11 09:32:53;;;;;;;1.77;1.27;;;7.00;97.40;;;;;;5120271;28;20574;-83
2023/03/11 09:35:18;;;;;;;1.80;1.47;;;7.10;99.90;;;;;;5119258;28;20176;-83
2023/03/11 09:37:44;;;;;;;2.80;1.40;;;7.10;99.90;;;;;;5119470;28;20190;-83
2023/03/11 09:40:15;;;;;;;3.90;2.10;;;7.10;96.30;;;;;;5119898;28;20192;-83
2023/03/11 09:43:26;;;;;;;1.93;1.50;;;6.90;96.80;;;;;;5120385;28;20180;-83
2023/03/11 09:46:02;;;;;;;2.53;1.27;;;7.20;96.10;;;;;;5120291;28;20250;-83
2023/03/11 09:48:43;;;;;;;1.90;1.60;;;7.30;95.80;;;;;;5118863;28;20226;-83
2023/03/11 09:51:12;;;;;;;3.87;2.33;;;7.40;93.10;;;;;;5118930;28;20213;-83
2023/03/11 09:53:41;;;;;;;2.87;1.93;;;7.40;94.10;;;;;;5120324;28;20599;-83
2023/03/11 09:56:10;;;;;;;2.67;1.53;;;7.40;97.70;;;;;;5118645;28;20195;-83
2023/03/11 09:58:44;;;;;;;3.07;1.80;;;7.50;95.80;;;;;;5118983;28;20195;-84
2023/03/11 10:01:25;;;;;;;1.53;1.27;;;7.60;95.70;;;;;;5120703;28;20255;-84
2023/03/11 10:03:54;;;;;;;2.60;1.80;;;6.60;91.50;;;;;;5119350;28;20179;-83
2023/03/11 10:06:25;;;;;;;2.57;1.50;;;6.70;95.60;;;;;;5118899;28;20186;-83
2023/03/11 10:09:10;;;;;;;1.27;1.17;;;7.30;98.10;;;;;;5118274;28;20200;-83
2023/03/11 10:11:48;;;;;;;1.23;1.13;;;7.90;94.60;;;;;;5119555;28;20243;-83
2023/03/11 10:14:14;;;;;;;2.80;1.20;;;8.10;96.40;;;;;;5120174;28;20265;-83
2023/03/11 10:17:08;;;;;;;1.67;1.10;;;8.40;94.70;;;;;;5118281;28;20215;-83
2023/03/11 10:20:18;;;;;;;1.40;1.13;;;8.60;91.50;;;;;;5121475;28;20199;-83
2023/03/11 10:23:02;;;;;;;1.97;0.90;;;8.60;92.30;;;;;;5115562;28;20197;-85
2023/03/11 10:25:54;;;;;;;0.90;0.90;;;8.40;91.50;;;;;;5123253;28;20252;-85
2023/03/11 10:28:25;;;;;;;2.80;1.10;;;8.30;92.80;;;;;;5119058;28;20797;-83
2023/03/11 10:30:56;;;;;;;2.33;1.70;;;8.20;92.60;;;;;;5121165;28;20703;-86
2023/03/11 10:33:43;;;;;;;2.23;1.30;;;8.40;91.40;;;;;;5120770;28;20204;-86
2023/03/11 10:36:14;;;;;;;1.30;1.20;;;8.40;90.10;;;;;;5121456;28;20169;-81
2023/03/11 10:38:51;;;;;;;4.27;2.80;;;8.30;91.70;;;;;;5117691;28;20681;-82
2023/03/11 10:41:16;;;;;;;2.47;2.13;;;8.80;87.90;;;;;;5118200;28;20182;-84
2023/03/11 10:43:55;;;;;;;2.30;1.77;;;9.30;87.00;;;;;;5118107;28;20188;-83
2023/03/11 10:46:28;;;;;;;1.83;1.20;;;8.70;82.40;;;;;;5118123;28;20170;-83
2023/03/11 10:48:54;;;;;;;1.33;1.20;;;8.50;81.30;;;;;;5120323;28;20209;-83
2023/03/11 10:51:22;;;;;;;2.60;1.50;;;8.50;81.90;;;;;;5120806;28;20177;-85
2023/03/11 10:53:51;;;;;;;2.07;1.20;;;8.40;86.80;;;;;;5121999;28;20181;-86
2023/03/11 10:56:39;;;;;;;2.47;1.17;;;8.90;90.50;;;;;;5120895;28;20181;-85
2023/03/11 10:59:22;;;;;;;1.63;1.00;;;9.60;92.20;;;;;;5120933;28;20730;-83
2023/03/11 11:02:18;;;;;;;3.57;1.10;;;9.70;90.40;;;;;;5119001;28;20208;-85
2023/03/11 11:04:44;;;;;;;2.17;1.20;;;9.30;82.00;;;;;;5122236;28;20203;-84
2023/03/11 11:07:30;;;;;;;3.90;1.10;;;9.00;81.60;;;;;;5121890;28;20203;-87
2023/03/11 11:10:11;;;;;;;1.30;1.20;;;9.60;86.00;;;;;;5122436;28;20199;-87
2023/03/11 11:13:01;;;;;;;2.90;1.30;;;9.40;77.60;;;;;;5119301;28;20209;-87
2023/03/11 11:15:33;;;;;;;2.27;1.30;;;9.30;79.90;;;;;;5117196;28;20172;-86
2023/03/11 11:18:26;;;;;;;1.73;1.00;;;8.80;80.70;;;;;;5119702;28;20247;-83
2023/03/11 11:20:53;;;;;;;1.33;0.90;;;8.00;79.00;;;;;;5109199;28;20573;-85
2023/03/11 11:23:32;;;;;;;1.60;1.20;;;6.90;82.10;;;;;;5119770;28;20192;-86
2023/03/11 11:26:01;;;;;;;2.00;1.10;;;7.70;90.20;;;;;;5121858;28;20202;-86
2023/03/11 11:28:27;;;;;;;0.80;0.80;;;7.90;81.30;;;;;;5121747;28;20203;-85
2023/03/11 11:30:59;;;;;;;7.87;3.93;;;7.30;80.10;;;;;;5122292;28;20192;-85
2023/03/11 11:33:31;;;;;;;2.40;1.90;;;6.60;82.40;;;;;;5123485;28;20211;-86
2023/03/11 11:36:02;;;;;;;6.00;2.97;;;6.70;83.80;;;;;;5123149;28;20199;-85
2023/03/11 11:38:30;;;;;;;7.17;4.77;;;6.30;83.70;;;;;;5123601;28;20246;-85
2023/03/11 11:40:58;;;;;;;3.63;2.00;;;6.40;86.20;;;;;;5120465;28;20193;-86
2023/03/11 11:43:50;;;;;;;2.10;1.40;;;6.70;83.20;;;;;;5120591;28;20180;-86
2023/03/11 11:46:19;;;;;;;1.23;1.00;;;7.70;87.10;;;;;;5118954;28;20168;-86
2023/03/11 11:48:59;;;;;;;2.97;1.43;;;8.80;84.50;;;;;;5118384;28;20232;-85
2023/03/11 11:51:34;;;;;;;3.47;1.60;;;9.70;83.70;;;;;;5118303;28;20176;-86
2023/03/11 11:54:17;;;;;;;3.33;1.73;;;9.50;77.00;;;;;;5117556;28;20601;-85
2023/03/11 11:56:44;;;;;;;2.90;1.43;;;9.40;77.70;;;;;;5117809;28;20188;-85
2023/03/11 11:59:21;;;;;;;1.27;1.17;;;8.90;75.50;;;;;;5118175;28;20254;-85
2023/03/11 12:02:05;;;;;;;2.27;1.33;;;8.70;76.80;;;;;;5119667;28;20183;-85
2023/03/11 12:04:39;;;;;;;3.40;1.40;;;8.80;75.30;;;;;;5120395;28;20662;-85
2023/03/11 12:07:11;;;;;;;1.97;1.50;;;8.60;77.10;;;;;;5120986;28;20183;-85
2023/03/11 12:09:46;;;;;;;1.40;1.00;;;8.50;75.00;;;;;;5119939;28;20668;-85
2023/03/11 12:12:26;;;;;;;1.57;1.20;;;8.20;76.10;;;;;;5121428;28;20649;-85
2023/03/11 12:15:18;;;;;;;2.47;1.80;;;8.50;77.70;;;;;;5120384;28;20632;-85
2023/03/11 12:17:47;;;;;;;2.87;1.17;;;8.80;80.80;;;;;;5120861;28;20183;-85
2023/03/11 12:20:23;;;;;;;2.00;1.10;;;9.20;77.70;;;;;;5122119;28;20199;-85
2023/03/11 12:23:16;;;;;;;2.73;1.47;;;10.20;80.50;;;;;;5120073;28;20208;-85
2023/03/11 12:26:13;;;;;;;2.43;1.50;;;11.10;72.60;;;;;;5121016;28;20175;-85
2023/03/11 12:29:07;;;;;;;3.83;1.70;;;11.60;71.10;;;;;;5122179;28;20680;-85
2023/03/11 12:31:38;;;;;;;6.13;4.50;;;11.20;66.90;;;;;;5122475;28;20698;-85
2023/03/11 12:34:06;;;;;;;1.70;1.30;;;10.50;71.30;;;;;;5123703;28;20270;-84
2023/03/11 12:36:38;;;;;;;2.77;1.77;;;8.90;68.80;;;;;;5129869;28;20188;-82
2023/03/11 12:39:07;;;;;;;2.40;1.77;;;9.30;78.20;;;;;;5129558;28;20195;-81
2023/03/11 12:41:40;;;;;;;3.50;1.63;;;10.40;71.50;;;;;;5120583;28;20172;-84
2023/03/11 12:44:20;;;;;;;5.20;2.30;;;9.60;71.10;;;;;;5120659;28;20206;-84
2023/03/11 12:46:58;;;;;;;3.57;2.50;;;10.00;75.40;;;;;;5120563;28;20517;-83
2023/03/11 12:49:31;;;;;;;1.50;1.30;;;11.20;71.10;;;;;;5119283;28;20202;-84
2023/03/11 12:52:12;;;;;;;3.37;1.20;;;11.70;70.50;;;;;;5120221;28;20308;-84
2023/03/11 12:55:09;;;;;;;4.47;1.20;;;11.50;67.90;;;;;;5120103;28;20270;-83
2023/03/11 12:57:47;;;;;;;1.70;1.10;;;10.20;68.70;;;;;;5096638;28;20612;-84
2023/03/11 13:00:49;;;;;;;1.60;1.20;;;9.20;75.20;;;;;;5120863;28;20279;-83
2023/03/11 13:03:30;;;;;;;15.67;7.20;;;8.20;74.90;;;;;;5122411;28;20586;-85
2023/03/11 13:06:36;;;;;;;4.20;2.73;;;9.10;73.00;;;;;;5126741;28;20243;-85
2023/03/11 13:09:03;;;;;;;1.73;1.33;;;10.90;74.20;;;;;;5128522;28;20202;-85
2023/03/11 13:11:42;;;;;;;4.00;2.70;;;11.70;66.10;;;;;;5125372;28;20183;-84
2023/03/11 13:14:15;;;;;;;1.97;1.50;;;10.80;68.20;;;;;;5124373;28;20287;-84
2023/03/11 13:16:42;;;;;;;2.87;1.23;;;11.20;73.50;;;;;;5124761;28;20247;-84
2023/03/11 13:19:26;;;;;;;2.70;1.00;;;12.40;68.90;;;;;;5123572;28;20194;-83
2023/03/11 13:21:53;;;;;;;1.87;1.47;;;10.90;63.70;;;;;;5121882;28;20632;-83
2023/03/11 13:24:24;;;;;;;1.57;1.10;;;9.90;68.90;;;;;;5120532;28;20183;-82
2023/03/11 13:26:57;;;;;;;3.80;2.07;;;8.90;70.30;;;;;;5120975;28;20192;-82
2023/03/11 13:29:47;;;;;;;2.97;1.23;;;8.00;73.60;;;;;;5121025;28;20727;-83
2023/03/11 13:32:16;;;;;;;2.33;1.63;;;7.80;76.40;;;;;;5120520;28;20215;-83
2023/03/11 13:35:08;;;;;;;3.03;1.40;;;7.50;77.50;;;;;;5128101;28;20248;-81
2023/03/11 13:38:03;;;;;;;2.33;1.73;;;7.60;77.30;;;;;;5120114;28;20638;-82
2023/03/11 13:40:36;;;;;;;4.70;2.53;;;7.40;78.40;;;;;;5107256;28;20187;-82
2023/03/11 13:43:08;;;;;;;2.77;1.87;;;7.10;77.70;;;;;;5118867;28;20183;-82
2023/03/11 13:45:35;;;;;;;2.97;2.13;;;7.10;81.10;;;;;;5118866;28;20182;-83
2023/03/11 13:48:29;;;;;;;3.27;2.10;;;7.20;80.70;;;;;;5117025;28;20191;-83
2023/03/11 13:51:21;;;;;;;2.07;1.30;;;7.20;78.80;;;;;;5102309;28;20205;-82
2023/03/11 13:54:12;;;;;;;3.10;2.10;;;7.10;81.50;;;;;;5118265;28;20207;-84
2023/03/11 13:56:45;;;;;;;4.30;2.97;;;7.30;79.80;;;;;;5116429;28;20175;-83
2023/03/11 13:59:22;;;;;;;4.13;3.37;;;8.20;79.10;;;;;;5116793;28;20206;-83
2023/03/11 14:01:53;;;;;;;3.53;1.80;;;8.80;77.20;;;;;;5118006;28;20174;-84
2023/03/11 14:04:31;;;;;;;3.20;2.60;;;8.10;74.70;;;;;;5117631;28;20206;-84
2023/03/11 14:06:58;;;;;;;2.07;1.40;;;9.20;76.40;;;;;;5117020;28;20175;-84
2023/03/11 14:09:26;;;;;;;1.67;1.27;;;10.90;71.50;;;;;;5116622;28;20198;-83
2023/03/11 14:11:55;;;;;;;2.60;1.43;;;10.80;66.50;;;;;;5115924;28;20207;-84
2023/03/11 14:14:33;;;;;;;1.20;1.10;;;10.40;68.70;;;;;;5120636;28;20172;-83
2023/03/11 14:17:02;;;;;;;2.97;1.30;;;9.70;71.70;;;;;;5125007;28;20186;-82
2023/03/11 14:19:28;;;;;;;3.97;1.93;;;9.90;76.50;;;;;;5120809;28;20200;-83
2023/03/11 14:21:54;;;;;;;1.83;1.60;;;11.10;68.80;;;;;;5115448;28;20596;-83
2023/03/11 14:24:27;;;;;;;3.03;1.70;;;10.40;67.30;;;;;;5116163;28;20175;-83
2023/03/11 14:26:55;;;;;;;7.40;3.60;;;10.40;65.50;;;;;;5115607;28;20190;-83
2023/03/11 14:29:44;;;;;;;3.43;1.60;;;10.90;67.00;;;;;;5117244;28;20230;-83
2023/03/11 14:32:32;;;;;;;3.53;1.40;;;10.00;65.90;;;;;;5116958;28;20195;-83
2023/03/11 14:34:58;;;;;;;4.60;2.80;;;10.60;64.60;;;;;;5115403;28;20182;-83
2023/03/11 14:37:33;;;;;;;2.40;1.40;;;10.60;66.00;;;;;;5117010;28;20168;-83
2023/03/11 14:39:59;;;;;;;1.77;1.33;;;11.40;63.90;;;;;;5117590;28;20248;-84
2023/03/11 14:42:39;;;;;;;1.30;1.20;;;10.80;64.00;;;;;;5115596;28;20183;-82
2023/03/11 14:45:14;;;;;;;2.20;1.53;;;9.50;67.60;;;;;;5115330;28;20635;-83
2023/03/11 14:47:58;;;;;;;3.47;2.23;;;8.60;69.70;;;;;;5116912;28;20525;-84
2023/03/11 14:50:30;;;;;;;2.40;1.70;;;8.00;71.50;;;;;;5115516;28;20704;-83
2023/03/11 14:53:13;;;;;;;3.27;1.50;;;7.80;74.40;;;;;;5115414;28;20204;-84
2023/03/11 14:55:49;;;;;;;7.50;3.63;;;7.40;72.00;;;;;;5116171;28;20175;-84
2023/03/11 14:58:33;;;;;;;6.40;3.80;;;7.30;75.00;;;;;;5116255;28;20178;-83
2023/03/11 15:01:20;;;;;;;5.27;2.97;;;7.20;72.90;;;;;;5117719;28;20174;-82
2023/03/11 15:03:50;;;;;;;3.97;2.77;;;6.90;74.30;;;;;;5115532;28;20175;-83
2023/03/11 15:06:18;;;;;;;4.63;2.90;;;6.40;74.90;;;;;;5115956;28;20645;-81
2023/03/11 15:08:51;;;;;;;3.60;2.57;;;6.20;78.70;;;;;;5115809;28;20226;-82
2023/03/11 15:11:18;;;;;;;4.13;2.93;;;6.00;78.50;;;;;;5115752;28;20211;-83
2023/03/11 15:13:48;;;;;;;4.33;3.13;;;5.90;81.00;;;;;;5117753;28;20203;-83
2023/03/11 15:16:33;;;;;;;2.80;2.30;;;5.90;79.80;;;;;;5118656;28;20175;-83
2023/03/11 15:19:19;;;;;;;2.00;1.80;;;6.00;78.50;;;;;;5115445;28;20195;-82
2023/03/11 15:21:46;;;;;;;4.20;2.87;;;5.90;76.70;;;;;;5116839;28;20176;-83
2023/03/11 15:24:18;;;;;;;5.30;4.57;;;5.80;78.30;;;;;;5116447;28;20637;-80
2023/03/11 15:26:56;;;;;;;4.77;2.70;;;5.60;77.60;;;;;;5117654;28;20180;-81
2023/03/11 15:29:24;;;;;;;2.70;2.10;;;5.60;79.70;;;;;;5116449;28;20218;-80
2023/03/11 15:31:50;;;;;;;2.90;2.00;;;5.50;80.50;;;;;;5117025;28;20650;-81
2023/03/11 15:34:15;;;;;;;3.07;2.30;;;5.50;80.60;;;;;;5119706;28;20168;-81
2023/03/11 15:36:54;;;;;;;3.47;2.60;;;5.50;80.90;;;;;;5121761;28;20610;-81
2023/03/11 15:39:29;;;;;;;3.03;2.00;;;5.50;79.60;;;;;;5121016;28;20195;-82
2023/03/11 15:42:02;;;;;;;2.30;2.10;;;5.60;78.80;;;;;;5121369;28;20204;-80
2023/03/11 15:44:41;;;;;;;6.17;3.47;;;5.70;79.50;;;;;;5121871;28;20668;-83
2023/03/11 15:47:19;;;;;;;2.80;2.57;;;5.70;79.90;;;;;;5123270;28;20252;-82
2023/03/11 15:49:45;;;;;;;3.43;1.50;;;5.60;82.40;;;;;;5119713;28;20411;-82
2023/03/11 15:52:12;;;;;;;2.00;1.80;;;5.70;81.20;;;;;;5120282;28;20255;-82
2023/03/11 15:54:38;;;;;;;3.17;1.70;;;5.60;78.50;;;;;;5121435;28;20175;-82
2023/03/11 15:57:07;;;;;;;3.93;1.80;;;5.50;80.60;;;;;;5120034;28;20222;-83
2023/03/11 15:59:34;;;;;;;2.23;1.83;;;5.30;79.30;;;;;;5120903;28;20191;-82
2023/03/11 16:01:59;;;;;;;3.07;1.97;;;5.20;79.70;;;;;;5120327;28;20259;-82
2023/03/11 16:04:25;;;;;;;3.47;2.20;;;5.10;81.70;;;;;;5119706;28;20199;-82
2023/03/11 16:06:52;;;;;;;2.13;1.93;;;5.10;80.50;;;;;;5120858;28;20182;-81
2023/03/11 16:09:18;;;;;;;1.53;1.40;;;5.00;80.30;;;;;;5126417;28;20190;-82
2023/03/11 16:11:44;;;;;;;3.17;2.87;;;5.00;80.50;;;;;;5122873;28;20215;-83
2023/03/11 16:14:16;;;;;;;5.83;2.87;;;4.90;82.40;;;;;;5125036;28;20206;-82
2023/03/11 16:16:42;;;;;;;3.37;3.03;;;4.80;81.70;;;;;;5123332;28;20171;-82
2023/03/11 16:19:08;;;;;;;3.93;3.13;;;4.70;83.10;;;;;;5121579;28;20194;-82
2023/03/11 16:21:41;;;;;;;21.70;10.60;;;4.70;82.60;;;;;;5119668;28;20185;-82
2023/03/11 16:24:07;;;;;;;25.93;11.27;;;4.60;82.50;;;;;;5120522;28;20169;-83
